Time;durP1;ratioP1;P1;durP2;ratioP2;P2;SDS_P1;SDS_P2;PMS_P1;PMS_P2;Temp;Humidity;BMP_temperature;BMP_pressure;BME280_temperature;BME280_humidity;BME280_pressure;Samples;Min_cycle;Max_cycle;Signal;HPM_P1;HPM_P2
2022/10/12 00:00:48;;;;;;;32.22;6.93;;;6.20;99.90;;;;;;5017510;28;20483;-76
2022/10/12 00:03:17;;;;;;;25.02;6.63;;;6.60;99.90;;;;;;5016256;28;20057;-77
2022/10/12 00:05:45;;;;;;;37.13;6.35;;;5.10;99.90;;;;;;5000043;28;20069;-80
2022/10/12 00:08:12;;;;;;;;;;;5.50;99.90;;;;;;5016623;28;20046;-78
2022/10/12 00:11:17;;;;;;;;;;;;;;;;;;;;;
2022/10/12 00:13:45;;;;;;;35.05;6.18;;;5.00;99.90;;;;;;4997153;28;20058;-78
2022/10/12 00:16:33;;;;;;;30.38;6.28;;;5.20;99.90;;;;;;5015845;28;20484;-76
2022/10/12 00:19:01;;;;;;;28.98;6.28;;;5.30;99.90;;;;;;4983602;28;20038;-78
2022/10/12 00:21:29;;;;;;;24.80;6.28;;;6.70;99.90;;;;;;4998846;28;20046;-79
2022/10/12 00:24:00;;;;;;;29.52;6.22;;;5.30;99.90;;;;;;5016777;28;20042;-77
2022/10/12 00:26:28;;;;;;;31.52;6.63;;;5.30;99.90;;;;;;5016677;28;20046;-79
2022/10/12 00:28:57;;;;;;;;;;;5.40;99.90;;;;;;5016173;28;20049;-78
2022/10/12 00:31:26;;;;;;;25.50;5.82;;;5.30;99.90;;;;;;5016646;28;20237;-79
2022/10/12 00:33:54;;;;;;;24.80;5.75;;;5.30;99.90;;;;;;5016897;28;20072;-79
2022/10/12 00:36:31;;;;;;;31.88;6.22;;;5.20;99.90;;;;;;4998163;28;20061;-80
2022/10/12 00:38:59;;;;;;;21.63;6.00;;;6.70;99.90;;;;;;5016765;28;20050;-76
2022/10/12 00:41:30;;;;;;;18.48;5.35;;;6.80;99.90;;;;;;5015816;28;20045;-80
2022/10/12 00:43:57;;;;;;;31.38;5.93;;;7.20;99.90;;;;;;4999068;28;20046;-79
2022/10/12 00:46:34;;;;;;;27.17;6.13;;;5.10;99.90;;;;;;5016312;28;20046;-80
2022/10/12 00:49:11;;;;;;;29.55;6.18;;;4.90;99.90;;;;;;4998087;28;20054;-80
2022/10/12 00:51:41;;;;;;;22.08;6.00;;;6.70;99.90;;;;;;4998949;28;20049;-78
2022/10/12 00:54:12;;;;;;;32.45;6.50;;;6.80;99.90;;;;;;5016908;28;20445;-77
2022/10/12 00:56:43;;;;;;;31.83;6.35;;;6.30;99.90;;;;;;5015016;28;20053;-79
2022/10/12 00:59:19;;;;;;;32.45;6.18;;;7.00;99.90;;;;;;4999514;28;20050;-77
2022/10/12 01:01:49;;;;;;;25.60;5.75;;;5.00;99.90;;;;;;5015044;28;20385;-79
2022/10/12 01:04:17;;;;;;;28.77;5.78;;;6.50;99.90;;;;;;5016242;28;20061;-77
2022/10/12 01:06:45;;;;;;;34.53;6.32;;;5.00;99.90;;;;;;5015843;28;20493;-79
2022/10/12 01:09:13;;;;;;;28.70;6.10;;;6.90;99.90;;;;;;5014944;28;20460;-76
2022/10/12 01:11:41;;;;;;;29.38;6.05;;;5.10;99.90;;;;;;5015793;28;20469;-76
2022/10/12 01:14:09;;;;;;;31.23;6.15;;;6.20;99.90;;;;;;4998739;28;20057;-77
2022/10/12 01:16:46;;;;;;;21.80;5.43;;;4.00;99.90;;;;;;4997259;28;20057;-79
2022/10/12 01:20:01;;;;;;;28.60;5.75;;;7.00;99.90;;;;;;5015896;28;20050;-79
2022/10/12 01:22:35;;;;;;;27.00;5.70;;;5.00;99.90;;;;;;4971803;28;20042;-76
2022/10/12 01:25:30;;;;;;;28.05;5.68;;;6.60;99.90;;;;;;5015582;28;20046;-79
2022/10/12 01:28:11;;;;;;;28.42;6.15;;;5.00;99.90;;;;;;4997596;28;20366;-79
2022/10/12 01:30:44;;;;;;;25.58;5.78;;;5.00;99.90;;;;;;5015628;28;20053;-79
2022/10/12 01:33:34;;;;;;;32.33;6.03;;;5.50;99.90;;;;;;4998601;28;20049;-80
2022/10/12 01:36:15;;;;;;;25.42;5.55;;;5.10;99.90;;;;;;4997670;28;20492;-79
2022/10/12 01:38:46;;;;;;;24.70;5.57;;;5.10;99.90;;;;;;5015668;28;20050;-79
2022/10/12 01:41:25;;;;;;;21.25;6.00;;;5.00;99.90;;;;;;4997510;28;20049;-79
2022/10/12 01:43:53;;;;;;;29.38;6.07;;;3.40;99.90;;;;;;5015600;28;20472;-76
2022/10/12 01:46:23;;;;;;;28.73;5.65;;;5.10;99.90;;;;;;4998603;28;20061;-77
2022/10/12 01:48:56;;;;;;;25.42;5.70;;;5.10;99.90;;;;;;5014779;28;20050;-79
2022/10/12 01:51:44;;;;;;;32.22;6.03;;;6.40;99.90;;;;;;4998361;28;20583;-77
2022/10/12 01:54:17;;;;;;;31.20;6.07;;;6.20;99.90;;;;;;4995634;28;20061;-79
2022/10/12 01:56:57;;;;;;;23.13;5.28;;;5.10;99.90;;;;;;5014932;28;20064;-78
2022/10/12 01:59:59;;;;;;;27.83;5.53;;;5.10;99.90;;;;;;4998174;28;20054;-76
2022/10/12 02:02:47;;;;;;;29.02;5.72;;;5.10;99.90;;;;;;5013997;28;20376;-76
2022/10/12 02:05:18;;;;;;;25.50;5.32;;;5.10;99.90;;;;;;4998055;28;20053;-79
2022/10/12 02:08:05;;;;;;;26.17;5.63;;;5.10;99.90;;;;;;4997014;28;20053;-77
2022/10/12 02:10:39;;;;;;;28.17;5.17;;;5.10;99.90;;;;;;5014976;28;20461;-78
2022/10/12 02:13:11;;;;;;;22.10;4.93;;;6.80;99.90;;;;;;5015632;28;20487;-78
2022/10/12 02:15:42;;;;;;;24.52;5.38;;;6.80;99.90;;;;;;5014049;28;20065;-80
2022/10/12 02:18:14;;;;;;;24.08;5.25;;;6.30;99.90;;;;;;5015234;28;20046;-77
2022/10/12 02:20:46;;;;;;;33.00;4.82;;;5.70;99.90;;;;;;5015117;28;20057;-80
2022/10/12 02:23:18;;;;;;;23.33;5.10;;;6.60;99.90;;;;;;5013357;28;20057;-80
2022/10/12 02:25:48;;;;;;;24.15;5.05;;;6.50;99.90;;;;;;5015515;28;20056;-77
2022/10/12 02:28:19;;;;;;;32.03;5.70;;;7.30;99.90;;;;;;5013801;28;20053;-78
2022/10/12 02:30:56;;;;;;;24.38;5.10;;;7.40;99.90;;;;;;5015161;28;20058;-76
2022/10/12 02:33:36;;;;;;;27.88;4.70;;;6.60;99.90;;;;;;5014906;28;20046;-79
2022/10/12 02:36:13;;;;;;;25.20;4.78;;;6.90;99.90;;;;;;5013719;28;20491;-76
2022/10/12 02:38:51;;;;;;;27.02;5.20;;;6.40;99.90;;;;;;4981998;28;20396;-78
2022/10/12 02:41:27;;;;;;;27.90;4.25;;;5.10;99.90;;;;;;4996807;28;20282;-79
2022/10/12 02:44:02;;;;;;;25.55;4.32;;;5.10;99.90;;;;;;5014696;28;20037;-78
2022/10/12 02:46:32;;;;;;;36.90;4.75;;;6.40;99.90;;;;;;4998033;28;20064;-76
2022/10/12 02:49:03;;;;;;;22.90;4.22;;;6.50;99.90;;;;;;4997011;28;20495;-77
2022/10/12 02:51:32;;;;;;;20.95;4.45;;;7.10;99.90;;;;;;5014874;28;20050;-79
2022/10/12 02:54:01;;;;;;;27.63;5.03;;;4.80;99.90;;;;;;5014476;28;20358;-80
2022/10/12 02:56:28;;;;;;;33.30;5.43;;;5.00;99.90;;;;;;5013548;28;20057;-80
2022/10/12 02:58:56;;;;;;;32.90;4.88;;;6.30;99.90;;;;;;5014772;28;20473;-77
2022/10/12 03:01:24;;;;;;;27.20;4.70;;;4.90;99.90;;;;;;5013599;28;20057;-79
2022/10/12 03:03:52;;;;;;;36.85;5.15;;;4.90;99.90;;;;;;5014454;28;20073;-80
2022/10/12 03:06:19;;;;;;;32.10;5.63;;;6.60;99.90;;;;;;4999310;28;20046;-78
2022/10/12 03:08:47;;;;;;;25.33;4.90;;;6.80;99.90;;;;;;5000173;28;20575;-78
2022/10/12 03:11:15;;;;;;;32.15;5.47;;;5.00;99.90;;;;;;5017930;28;20053;-78
2022/10/12 03:13:43;;;;;;;30.00;5.57;;;4.00;99.90;;;;;;5018074;28;20046;-77
2022/10/12 03:16:11;;;;;;;26.95;5.25;;;5.30;99.90;;;;;;5017054;28;20042;-77
2022/10/12 03:18:38;;;;;;;26.10;5.15;;;6.20;99.90;;;;;;5000615;28;20050;-77
2022/10/12 03:21:06;;;;;;;26.90;5.57;;;7.20;99.90;;;;;;4999768;28;20049;-77
2022/10/12 03:23:34;;;;;;;25.67;5.22;;;5.10;99.90;;;;;;5017900;28;20385;-80
2022/10/12 03:26:02;;;;;;;35.80;5.85;;;5.10;99.90;;;;;;5001186;28;20046;-79
2022/10/12 03:28:30;;;;;;;25.67;5.40;;;6.40;99.90;;;;;;5016908;28;20064;-77
2022/10/12 03:30:58;;;;;;;30.98;5.47;;;6.80;99.90;;;;;;5017760;28;20054;-76
2022/10/12 03:33:25;;;;;;;28.02;6.05;;;4.90;99.90;;;;;;5017845;28;20054;-79
2022/10/12 03:35:53;;;;;;;28.70;5.68;;;6.80;99.90;;;;;;5016848;28;20475;-78
2022/10/12 03:38:21;;;;;;;30.85;5.70;;;5.60;99.90;;;;;;5017504;28;20045;-75
2022/10/12 03:40:48;;;;;;;25.17;5.13;;;7.00;99.90;;;;;;5017637;28;20380;-79
2022/10/12 03:43:16;;;;;;;26.85;5.68;;;7.50;99.90;;;;;;4983031;28;20050;-78
2022/10/12 03:45:43;;;;;;;19.90;4.72;;;5.70;99.90;;;;;;5017029;28;20350;-78
2022/10/12 03:48:11;;;;;;;22.98;4.53;;;5.70;99.90;;;;;;4999357;28;20053;-78
2022/10/12 03:50:39;;;;;;;28.48;5.32;;;5.80;99.90;;;;;;5017389;28;20385;-77
2022/10/12 03:53:06;;;;;;;27.63;5.28;;;5.90;99.90;;;;;;5017763;28;20053;-77
2022/10/12 03:55:34;;;;;;;23.63;4.55;;;6.00;99.90;;;;;;4999665;28;20045;-76
2022/10/12 03:58:02;;;;;;;23.48;4.95;;;5.90;99.90;;;;;;5017399;28;20355;-78
2022/10/12 04:00:29;;;;;;;27.40;4.63;;;6.30;99.90;;;;;;5000234;28;20046;-79
2022/10/12 04:02:57;;;;;;;22.73;4.03;;;7.60;99.90;;;;;;4998826;28;20053;-76
2022/10/12 04:05:24;;;;;;;19.38;4.43;;;6.10;99.90;;;;;;5017300;28;20049;-75
2022/10/12 04:07:52;;;;;;;21.10;4.05;;;6.00;99.90;;;;;;4999264;28;20050;-79
2022/10/12 04:10:21;;;;;;;18.50;4.30;;;7.10;99.90;;;;;;5017303;28;20053;-78
2022/10/12 04:12:49;;;;;;;21.67;4.38;;;7.30;99.90;;;;;;5016979;28;20061;-78
2022/10/12 04:15:17;;;;;;;24.42;5.10;;;8.40;99.90;;;;;;4998901;28;20489;-77
2022/10/12 04:17:45;;;;;;;22.30;4.65;;;7.70;99.90;;;;;;4999133;28;20053;-79
2022/10/12 04:20:12;;;;;;;21.88;4.53;;;6.40;99.90;;;;;;5016865;28;20046;-78
2022/10/12 04:22:40;;;;;;;27.48;4.47;;;6.10;99.90;;;;;;4998997;28;20053;-77
2022/10/12 04:25:10;;;;;;;20.65;3.90;;;7.60;99.90;;;;;;5017045;28;20053;-75
2022/10/12 04:27:37;;;;;;;25.85;3.92;;;6.10;99.90;;;;;;4999683;28;20042;-76
2022/10/12 04:30:06;;;;;;;15.65;3.47;;;7.50;99.90;;;;;;5016283;28;20061;-78
2022/10/12 04:32:33;;;;;;;;;;;6.10;99.90;;;;;;5016875;28;20068;-77
2022/10/12 04:35:01;;;;;;;19.08;4.05;;;6.10;99.90;;;;;;4998959;28;19941;-77
2022/10/12 04:37:30;;;;;;;15.05;4.03;;;6.10;99.90;;;;;;4999113;28;20049;-77
2022/10/12 04:39:58;;;;;;;21.83;4.32;;;8.00;99.90;;;;;;4999516;28;20046;-75
2022/10/12 04:42:25;;;;;;;24.38;5.63;;;8.40;99.90;;;;;;5015361;28;20056;-75
2022/10/12 04:44:53;;;;;;;19.65;4.43;;;6.20;99.90;;;;;;5016404;28;20465;-75
2022/10/12 04:47:20;;;;;;;16.60;5.22;;;4.30;99.90;;;;;;5016768;28;20050;-74
2022/10/12 04:49:48;;;;;;;23.45;6.07;;;6.20;99.90;;;;;;4998128;28;20065;-75
2022/10/12 04:52:15;;;;;;;22.10;6.47;;;6.20;99.90;;;;;;5016559;28;20473;-77
2022/10/12 04:54:43;;;;;;;23.85;6.20;;;6.20;99.90;;;;;;5015355;28;20057;-74
2022/10/12 04:57:11;;;;;;;23.45;6.35;;;6.60;99.90;;;;;;4998808;28;20049;-78
2022/10/12 04:59:38;;;;;;;19.42;5.80;;;6.70;99.90;;;;;;5016214;28;20049;-75
2022/10/12 05:02:06;;;;;;;26.02;6.15;;;6.20;99.90;;;;;;4997902;28;20056;-79
2022/10/12 05:04:34;;;;;;;28.55;6.18;;;7.90;99.90;;;;;;5016291;28;20045;-78
2022/10/12 05:07:06;;;;;;;25.65;5.93;;;6.80;99.90;;;;;;4998922;28;20060;-77
2022/10/12 05:09:34;;;;;;;21.35;6.00;;;7.60;99.90;;;;;;5015064;28;20045;-78
2022/10/12 05:12:02;;;;;;;21.98;4.90;;;8.50;99.90;;;;;;5021656;28;20384;-77
2022/10/12 05:14:29;;;;;;;19.88;4.63;;;7.60;99.90;;;;;;5034352;28;20380;-75
2022/10/12 05:17:05;;;;;;;19.65;4.20;;;7.00;99.90;;;;;;5035065;28;20468;-76
2022/10/12 05:19:36;;;;;;;19.83;4.32;;;6.50;99.90;;;;;;5003199;28;20049;-77
2022/10/12 05:22:04;;;;;;;19.63;4.03;;;6.00;99.90;;;;;;5033686;28;20376;-76
2022/10/12 05:24:32;;;;;;;27.08;4.30;;;6.00;99.90;;;;;;5034786;28;20045;-77
2022/10/12 05:26:59;;;;;;;25.15;4.25;;;7.60;99.90;;;;;;5035364;28;20041;-75
2022/10/12 05:29:27;;;;;;;20.80;4.32;;;6.00;99.90;;;;;;5016387;28;20080;-76
2022/10/12 05:31:55;;;;;;;23.00;4.68;;;7.20;99.90;;;;;;5034784;28;20064;-78
2022/10/12 05:34:27;;;;;;;22.73;4.53;;;7.40;99.90;;;;;;5034619;28;20057;-76
2022/10/12 05:36:58;;;;;;;22.50;4.45;;;5.80;99.90;;;;;;5034434;28;20460;-77
2022/10/12 05:39:30;;;;;;;21.95;4.82;;;8.10;99.90;;;;;;5033976;28;20056;-77
2022/10/12 05:41:57;;;;;;;32.17;4.80;;;6.70;99.90;;;;;;5033349;28;20042;-75
2022/10/12 05:44:25;;;;;;;22.13;4.93;;;5.80;99.90;;;;;;5034681;28;20045;-77
2022/10/12 05:46:53;;;;;;;20.42;5.05;;;5.80;99.90;;;;;;5034204;28;20045;-75
2022/10/12 05:49:21;;;;;;;27.17;5.13;;;5.80;99.90;;;;;;5033162;28;20060;-76
2022/10/12 05:51:48;;;;;;;25.45;5.10;;;7.50;99.90;;;;;;5035129;28;20397;-75
2022/10/12 05:54:16;;;;;;;31.67;5.68;;;6.00;99.90;;;;;;5034461;28;20054;-77
2022/10/12 05:56:44;;;;;;;18.65;5.13;;;7.50;99.90;;;;;;5033733;28;20053;-78
2022/10/12 05:59:12;;;;;;;21.20;4.88;;;4.80;99.90;;;;;;5033912;28;20049;-75
2022/10/12 06:01:40;;;;;;;26.13;5.45;;;6.00;99.90;;;;;;5033089;28;20056;-76
2022/10/12 06:04:15;;;;;;;26.77;5.90;;;7.10;99.90;;;;;;5034515;28;20049;-76
2022/10/12 06:07:17;;;;;;;24.63;5.07;;;8.00;99.90;;;;;;5006391;28;20050;-75
2022/10/12 06:10:13;;;;;;;24.02;5.32;;;4.50;99.90;;;;;;5033875;28;20062;-78
2022/10/12 06:13:16;;;;;;;24.20;5.47;;;6.30;99.90;;;;;;5029856;28;20046;-78
2022/10/12 06:20:50;;;;;;;19.20;5.30;;;6.20;99.90;;;;;;4959197;28;20046;-78
2022/10/12 06:24:44;;;;;;;25.38;5.78;;;6.20;99.90;;;;;;4998067;28;20049;-80
2022/10/12 06:28:06;;;;;;;27.63;6.20;;;6.20;99.90;;;;;;5012451;28;20056;-80
2022/10/12 06:36:23;;;;;;;22.88;6.22;;;6.00;99.90;;;;;;4904733;29;20064;-79
2022/10/12 06:40:35;;;;;;;;;;;;;;;;;;;;;
2022/10/12 06:44:48;;;;;;;;;;;;;;;;;;;;;
2022/10/12 06:52:46;;;;;;;25.42;6.25;;;5.80;99.90;;;;;;4914187;28;20052;-80
2022/10/12 06:55:50;;;;;;;21.05;6.25;;;8.20;99.90;;;;;;4988591;28;20051;-80
2022/10/12 06:58:31;;;;;;;29.13;6.28;;;6.80;99.90;;;;;;4975269;28;20541;-78
2022/10/12 07:01:43;;;;;;;30.60;6.40;;;7.90;99.90;;;;;;4962454;28;20043;-75
2022/10/12 07:04:59;;;;;;;23.63;7.63;;;5.20;99.90;;;;;;4978153;28;20058;-84
2022/10/12 07:12:10;;;;;;;20.80;7.00;;;5.80;99.90;;;;;;4966499;28;20062;-81
2022/10/12 07:16:38;;;;;;;;;;;;;;;;;;;;;
2022/10/12 07:24:57;;;;;;;26.67;6.32;;;7.30;99.90;;;;;;4988326;28;20046;-80
2022/10/12 07:28:10;;;;;;;;;;;;;;;;;;;;;
2022/10/12 07:31:11;;;;;;;35.90;7.60;;;7.70;99.90;;;;;;5013540;28;20057;-75
2022/10/12 07:33:43;;;;;;;30.92;7.30;;;9.00;99.90;;;;;;5004493;28;20045;-80
2022/10/12 07:36:25;;;;;;;27.48;7.65;;;8.30;99.90;;;;;;5029038;28;20398;-76
2022/10/12 07:39:27;;;;;;;33.40;7.78;;;7.40;99.90;;;;;;5056720;28;20452;-77
2022/10/12 07:43:00;;;;;;;34.72;7.32;;;7.30;99.90;;;;;;5038793;28;20045;-78
2022/10/12 07:46:57;;;;;;;35.17;10.52;;;7.30;99.90;;;;;;5049898;28;20478;-79
2022/10/12 07:49:30;;;;;;;39.22;10.50;;;7.40;99.90;;;;;;4986054;28;20045;-78
2022/10/12 07:51:58;;;;;;;43.70;10.23;;;6.90;99.90;;;;;;5018655;28;20042;-75
2022/10/12 07:54:28;;;;;;;42.13;11.25;;;7.10;99.90;;;;;;5019015;28;20049;-75
2022/10/12 07:57:01;;;;;;;39.33;11.45;;;9.90;99.90;;;;;;5037418;28;20049;-73
2022/10/12 07:59:48;;;;;;;34.95;11.20;;;7.60;99.90;;;;;;5021059;28;20050;-75
2022/10/12 08:02:20;;;;;;;42.72;11.35;;;9.30;99.90;;;;;;5036277;28;20056;-73
2022/10/12 08:04:52;;;;;;;38.58;10.88;;;7.80;99.90;;;;;;5019793;28;20061;-79
2022/10/12 08:07:32;;;;;;;50.10;12.30;;;7.00;99.90;;;;;;5024924;28;20049;-77
2022/10/12 08:10:10;;;;;;;51.50;14.50;;;9.10;99.90;;;;;;5018725;28;20049;-75
2022/10/12 08:12:44;;;;;;;42.05;12.75;;;8.10;99.90;;;;;;5003554;28;20060;-74
2022/10/12 08:15:48;;;;;;;47.53;13.82;;;8.10;99.90;;;;;;4995565;28;20050;-76
2022/10/12 08:18:16;;;;;;;39.22;15.48;;;8.20;99.90;;;;;;5017038;28;20046;-76
2022/10/12 08:20:46;;;;;;;46.63;17.83;;;8.30;99.90;;;;;;5016020;28;20377;-71
2022/10/12 08:23:15;;;;;;;49.97;18.25;;;9.20;99.90;;;;;;4998742;28;20341;-74
2022/10/12 08:25:56;;;;;;;46.58;19.83;;;8.40;99.90;;;;;;5003173;28;20056;-76
2022/10/12 08:28:24;;;;;;;50.83;15.50;;;10.20;99.90;;;;;;5018623;28;20046;-73
2022/10/12 08:30:54;;;;;;;40.78;13.82;;;8.90;99.90;;;;;;5036570;28;20052;-74
2022/10/12 08:33:22;;;;;;;44.38;13.70;;;11.10;99.90;;;;;;5002512;28;20065;-75
2022/10/12 08:35:51;;;;;;;36.03;11.30;;;9.30;99.90;;;;;;5035290;28;20048;-75
2022/10/12 08:38:18;;;;;;;37.03;10.15;;;11.60;99.90;;;;;;5036326;28;20064;-76
2022/10/12 08:40:53;;;;;;;31.90;8.23;;;9.80;99.90;;;;;;5036194;28;20041;-76
2022/10/12 08:43:45;;;;;;;39.67;8.43;;;9.90;99.90;;;;;;5017968;28;20045;-74
2022/10/12 08:46:19;;;;;;;22.58;5.82;;;10.10;99.90;;;;;;5002078;28;20057;-76
2022/10/12 08:49:03;;;;;;;24.60;6.53;;;12.40;99.90;;;;;;5035084;28;20056;-72
2022/10/12 08:51:43;;;;;;;25.58;6.03;;;11.90;99.90;;;;;;5036116;28;20456;-75
2022/10/12 08:54:14;;;;;;;30.17;6.10;;;10.70;99.90;;;;;;5035935;28;20045;-73
2022/10/12 08:56:47;;;;;;;23.80;5.82;;;11.00;99.90;;;;;;5018112;28;20365;-76
2022/10/12 08:59:19;;;;;;;31.67;6.00;;;11.20;99.90;;;;;;5018432;28;20464;-74
2022/10/12 09:02:24;;;;;;;25.75;5.00;;;12.90;99.90;;;;;;5017022;28;20065;-73
2022/10/12 09:05:02;;;;;;;25.08;5.90;;;11.50;99.90;;;;;;5035700;28;20041;-75
2022/10/12 09:07:40;;;;;;;33.05;5.18;;;11.60;99.90;;;;;;5018541;28;20103;-76
2022/10/12 09:10:42;;;;;;;17.77;4.82;;;11.60;99.90;;;;;;5036177;28;20082;-76
2022/10/12 09:13:34;;;;;;;20.80;4.43;;;11.80;99.90;;;;;;5037622;28;20037;-75
2022/10/12 09:16:21;;;;;;;27.20;4.55;;;11.80;99.90;;;;;;5017288;28;20045;-73
2022/10/12 09:18:56;;;;;;;25.73;4.75;;;11.70;99.90;;;;;;5018519;28;20053;-77
2022/10/12 09:21:27;;;;;;;19.60;3.63;;;11.60;99.90;;;;;;5017471;28;20391;-76
2022/10/12 09:23:56;;;;;;;15.20;4.00;;;11.60;99.90;;;;;;5018166;28;20050;-74
2022/10/12 09:26:36;;;;;;;23.20;4.70;;;10.60;99.90;;;;;;5018214;28;20052;-75
2022/10/12 09:29:26;;;;;;;18.52;4.15;;;11.50;99.90;;;;;;5034476;28;20061;-76
2022/10/12 09:32:30;;;;;;;19.85;4.68;;;11.40;99.90;;;;;;5035407;28;20045;-74
2022/10/12 09:34:59;;;;;;;21.52;4.45;;;11.50;99.90;;;;;;5034259;28;20045;-77
2022/10/12 09:37:28;;;;;;;;;;;11.50;99.90;;;;;;5035988;28;20046;-74
2022/10/12 09:39:58;;;;;;;22.63;4.30;;;11.50;99.90;;;;;;5018050;28;19932;-77
2022/10/12 09:42:26;;;;;;;;;;;12.70;99.90;;;;;;5034409;28;20380;-76
2022/10/12 09:45:18;;;;;;;25.80;4.43;;;10.90;99.90;;;;;;5018123;28;19928;-75
2022/10/12 09:48:13;;;;;;;24.23;4.80;;;11.50;99.90;;;;;;5022992;28;20060;-77
2022/10/12 09:50:56;;;;;;;19.02;4.10;;;11.50;99.90;;;;;;5001807;28;20056;-73
2022/10/12 09:53:30;;;;;;;16.27;4.05;;;11.60;99.90;;;;;;5035112;28;20053;-79
2022/10/12 09:56:21;;;;;;;22.10;4.30;;;11.70;99.90;;;;;;5016748;28;20491;-74
2022/10/12 09:58:55;;;;;;;21.67;4.30;;;11.80;99.90;;;;;;5035250;28;20054;-76
2022/10/12 10:01:29;;;;;;;15.43;3.65;;;12.10;99.90;;;;;;5033883;28;20053;-73
2022/10/12 10:04:22;;;;;;;15.05;3.88;;;12.40;99.90;;;;;;5018208;28;20072;-75
2022/10/12 10:06:50;;;;;;;18.70;3.60;;;12.60;99.90;;;;;;5035181;28;20037;-74
2022/10/12 10:09:31;;;;;;;19.83;3.60;;;13.20;99.90;;;;;;5033765;28;20041;-76
2022/10/12 10:12:26;;;;;;;21.50;3.38;;;13.50;99.90;;;;;;5017397;28;20045;-76
2022/10/12 10:14:59;;;;;;;15.40;3.15;;;13.70;99.90;;;;;;5032256;28;20053;-74
2022/10/12 10:17:32;;;;;;;19.17;3.40;;;14.00;99.90;;;;;;5001242;28;20387;-77
2022/10/12 10:20:04;;;;;;;22.00;3.55;;;14.20;99.90;;;;;;5034615;28;20045;-73
2022/10/12 10:22:34;;;;;;;15.73;3.28;;;13.70;99.90;;;;;;4999968;28;20052;-75
2022/10/12 10:25:02;;;;;;;16.33;4.10;;;14.50;99.90;;;;;;5034911;28;20049;-74
2022/10/12 10:27:36;;;;;;;21.85;3.67;;;14.60;99.90;;;;;;5017978;28;20483;-75
2022/10/12 10:30:16;;;;;;;18.60;3.38;;;14.60;99.90;;;;;;5016908;28;20056;-77
2022/10/12 10:33:18;;;;;;;23.33;3.35;;;14.70;99.90;;;;;;5017335;28;20049;-76
2022/10/12 10:35:56;;;;;;;19.50;3.30;;;14.70;99.90;;;;;;5033574;28;20054;-76
2022/10/12 10:38:27;;;;;;;14.68;2.80;;;14.50;99.90;;;;;;5017310;28;20049;-77
2022/10/12 10:41:01;;;;;;;24.00;3.03;;;14.50;99.90;;;;;;5017304;28;20452;-75
2022/10/12 10:43:33;;;;;;;12.40;3.00;;;14.60;99.90;;;;;;5000938;28;20068;-74
2022/10/12 10:46:05;;;;;;;19.90;3.47;;;14.80;99.90;;;;;;5034903;28;20046;-75
2022/10/12 10:48:57;;;;;;;15.38;3.00;;;15.10;99.90;;;;;;5033505;28;20049;-76
2022/10/12 10:51:56;;;;;;;19.80;3.38;;;15.60;99.90;;;;;;5000882;28;20051;-73
2022/10/12 10:54:37;;;;;;;19.10;2.97;;;14.30;99.90;;;;;;5004835;28;20061;-73
2022/10/12 10:57:28;;;;;;;20.05;3.53;;;16.10;99.90;;;;;;5034322;28;20460;-76
2022/10/12 11:00:04;;;;;;;18.35;3.42;;;16.40;99.90;;;;;;5017204;28;20468;-76
2022/10/12 11:02:57;;;;;;;22.17;3.42;;;16.50;99.90;;;;;;5015939;28;20045;-75
2022/10/12 11:05:42;;;;;;;15.38;3.20;;;16.60;99.90;;;;;;5034375;28;20064;-74
2022/10/12 11:08:20;;;;;;;17.67;3.53;;;16.50;99.90;;;;;;5033049;28;20050;-76
2022/10/12 11:11:19;;;;;;;18.73;3.60;;;16.60;99.90;;;;;;5033386;28;20056;-74
2022/10/12 11:13:59;;;;;;;13.02;3.17;;;16.60;99.90;;;;;;5033636;28;20045;-76
2022/10/12 11:16:33;;;;;;;14.85;3.28;;;16.60;99.90;;;;;;4999174;28;20388;-76
2022/10/12 11:19:10;;;;;;;16.23;3.58;;;16.60;99.90;;;;;;5033823;28;20053;-76
2022/10/12 11:21:46;;;;;;;21.05;3.47;;;16.60;99.90;;;;;;5032699;28;20046;-70
2022/10/12 11:24:27;;;;;;;15.75;3.38;;;16.50;99.90;;;;;;5026484;28;20034;-73
2022/10/12 11:27:24;;;;;;;13.90;3.40;;;16.40;99.90;;;;;;5010287;28;20042;-76
2022/10/12 11:30:00;;;;;;;16.55;3.85;;;16.20;99.90;;;;;;5028158;28;20053;-73
2022/10/12 11:33:02;;;;;;;19.90;3.83;;;16.00;99.90;;;;;;5021839;28;20053;-75
2022/10/12 11:35:39;;;;;;;18.67;4.15;;;15.80;99.90;;;;;;5036186;28;20171;-76
2022/10/12 11:38:22;;;;;;;19.23;3.88;;;15.60;99.90;;;;;;5020616;28;20056;-74
2022/10/12 11:41:03;;;;;;;14.32;3.20;;;15.40;99.90;;;;;;5036901;28;20349;-74
2022/10/12 11:44:01;;;;;;;17.63;4.45;;;15.30;99.90;;;;;;5037235;28;20046;-76
2022/10/12 11:46:41;;;;;;;20.70;3.40;;;13.60;99.90;;;;;;5020180;28;20041;-77
2022/10/12 11:49:27;;;;;;;15.25;3.28;;;15.20;99.90;;;;;;5036332;28;20376;-76
2022/10/12 11:51:58;;;;;;;15.30;3.13;;;15.30;99.90;;;;;;5018785;28;20049;-76
2022/10/12 11:54:28;;;;;;;16.27;3.30;;;15.30;99.90;;;;;;5019039;28;20045;-75
2022/10/12 11:57:02;;;;;;;14.88;3.47;;;15.30;99.90;;;;;;5019827;28;20041;-77
2022/10/12 11:59:38;;;;;;;22.10;3.67;;;15.30;99.90;;;;;;5002556;28;20057;-77
2022/10/12 12:02:32;;;;;;;14.50;3.10;;;15.40;99.90;;;;;;5020005;28;20053;-77
2022/10/12 12:05:50;;;;;;;;;;;;;;;;;;;;;
2022/10/12 12:08:37;;;;;;;15.90;3.13;;;15.60;99.90;;;;;;5034549;28;20396;-76
2022/10/12 12:11:27;;;;;;;18.42;3.20;;;16.10;99.90;;;;;;5036815;28;20476;-74
2022/10/12 12:14:25;;;;;;;14.25;2.95;;;16.40;99.90;;;;;;5036483;28;20376;-75
2022/10/12 12:17:33;;;;;;;16.73;2.95;;;16.70;99.90;;;;;;5003152;28;20057;-74
2022/10/12 12:20:50;;;;;;;14.32;3.03;;;17.10;99.90;;;;;;5019129;28;20037;-74
2022/10/12 12:23:25;;;;;;;14.27;3.20;;;15.60;99.90;;;;;;5002030;28;20464;-77
2022/10/12 12:26:25;;;;;;;11.45;2.88;;;17.40;99.90;;;;;;5019214;28;20045;-74
2022/10/12 12:29:10;;;;;;;11.50;3.00;;;17.40;99.90;;;;;;5034956;28;20049;-78
2022/10/12 12:31:55;;;;;;;12.10;2.78;;;17.40;99.90;;;;;;5020127;28;20057;-77
2022/10/12 12:34:26;;;;;;;11.38;3.00;;;17.40;99.90;;;;;;5003242;28;20064;-73
2022/10/12 12:36:57;;;;;;;12.10;2.55;;;17.40;99.90;;;;;;5019452;28;20464;-76
2022/10/12 12:39:43;;;;;;;20.85;3.17;;;17.40;99.90;;;;;;5036593;28;20057;-77
2022/10/12 12:42:21;;;;;;;13.30;2.90;;;17.50;99.90;;;;;;5001728;28;20053;-75
2022/10/12 12:44:51;;;;;;;13.82;3.28;;;17.70;99.90;;;;;;5019430;28;20038;-75
2022/10/12 12:47:35;;;;;;;12.88;3.38;;;17.80;99.90;;;;;;5019197;28;20064;-74
2022/10/12 12:50:30;;;;;;;13.43;3.38;;;18.00;99.90;;;;;;5018766;28;20487;-78
2022/10/12 12:53:12;;;;;;;21.10;4.30;;;18.10;99.90;;;;;;5036356;28;20037;-74
2022/10/12 12:56:09;;;;;;;21.02;4.50;;;18.30;99.90;;;;;;5035269;28;20045;-74
2022/10/12 12:59:10;;;;;;;14.68;3.58;;;18.40;99.90;;;;;;5035963;28;20475;-78
2022/10/12 13:01:49;;;;;;;15.85;3.67;;;18.50;99.90;;;;;;5017595;28;20068;-75
2022/10/12 13:04:38;;;;;;;12.00;3.53;;;18.50;99.90;;;;;;5018745;28;20038;-75
2022/10/12 13:07:21;;;;;;;10.95;3.33;;;18.60;99.90;;;;;;5018277;28;20366;-78
2022/10/12 13:10:19;;;;;;;23.20;5.90;;;18.60;99.90;;;;;;5001367;28;20053;-77
2022/10/12 13:13:07;;;;;;;11.93;3.05;;;18.70;99.90;;;;;;5019263;28;20056;-76
2022/10/12 13:16:08;;;;;;;14.35;2.70;;;18.80;99.90;;;;;;5034804;28;20045;-76
2022/10/12 13:19:10;;;;;;;10.60;2.53;;;18.90;99.90;;;;;;5035222;28;20057;-75
2022/10/12 13:21:46;;;;;;;12.90;2.50;;;18.90;99.90;;;;;;5034504;28;20045;-74
2022/10/12 13:24:23;;;;;;;13.07;2.50;;;19.00;99.90;;;;;;5036359;28;20372;-77
2022/10/12 13:27:24;;;;;;;10.85;2.63;;;17.30;99.90;;;;;;5035693;28;20041;-77
2022/10/12 13:30:25;;;;;;;17.42;2.60;;;18.90;99.90;;;;;;5006456;28;20049;-76
2022/10/12 13:33:16;;;;;;;10.60;2.22;;;19.00;99.90;;;;;;5035103;28;20042;-78
2022/10/12 13:36:12;;;;;;;10.65;2.42;;;18.90;99.90;;;;;;5033413;28;20056;-75
2022/10/12 13:38:43;;;;;;;12.45;2.42;;;19.00;99.90;;;;;;5030414;28;20103;-74
2022/10/12 13:41:11;;;;;;;11.07;2.42;;;19.00;99.90;;;;;;5033050;28;20049;-74
2022/10/12 13:43:45;;;;;;;10.55;1.92;;;19.20;99.90;;;;;;5034123;28;20068;-77
2022/10/12 13:46:41;;;;;;;11.20;2.30;;;19.20;99.90;;;;;;5035221;28;20045;-75
2022/10/12 13:49:23;;;;;;;10.57;2.30;;;19.10;97.80;;;;;;5032723;28;20050;-76
2022/10/12 13:51:59;;;;;;;11.32;2.15;;;18.80;99.90;;;;;;5035493;28;20052;-77
2022/10/12 13:54:42;;;;;;;11.40;2.10;;;18.70;99.90;;;;;;5033865;28;20064;-77
2022/10/12 13:57:38;;;;;;;13.25;2.53;;;18.60;99.90;;;;;;5035348;28;20045;-78
2022/10/12 14:00:19;;;;;;;10.50;2.30;;;18.60;99.90;;;;;;5034482;28;20061;-80
2022/10/12 14:02:58;;;;;;;11.77;2.28;;;18.40;99.90;;;;;;5032944;28;20037;-78
2022/10/12 14:05:30;;;;;;;12.57;2.38;;;18.30;99.90;;;;;;5034828;28;20460;-75
2022/10/12 14:08:46;;;;;;;8.55;2.10;;;18.10;99.90;;;;;;5014665;28;20472;-76
2022/10/12 14:12:29;;;;;;;;;;;;;;;;;;;;;
2022/10/12 14:15:32;;;;;;;11.52;2.13;;;17.80;99.90;;;;;;4997717;28;20503;-76
2022/10/12 14:18:04;;;;;;;10.95;2.50;;;17.80;99.90;;;;;;5017445;28;20044;-75
2022/10/12 14:20:42;;;;;;;8.98;2.20;;;17.70;99.90;;;;;;5035522;28;20053;-75